Terminal Aerodrome Forecast
Issued by NWS

Home | Current Version | Previous Version | Text Only | Print | Product List | Glossary On
Versions: 1 2 3 4 5 6 7 8 9 10 11 12 13 14
000
FTUS46 KLOX 050535
TAFWJF
TAF
KWJF 050535Z 0506/0606 22007KT P6SM SKC
     FM051200 VRB05KT P6SM SKC
     FM051900 23012KT P6SM SKC
     FM052200 24020G30KT P6SM SKC
     FM060300 24012KT P6SM SKC=

USA.gov is the U.S. government's official web portal to all federal, state and local government web resources and services.